createdAt,value
2017-11-08T00:00:33.021Z,7.20
2017-11-08T00:02:59.466Z,7.20
2017-11-08T00:05:25.959Z,7.20
2017-11-08T00:07:52.483Z,7.10
2017-11-08T00:10:19.687Z,7.20
2017-11-08T00:12:46.249Z,7.20
2017-11-08T00:15:12.734Z,7.00
2017-11-08T00:17:39.964Z,7.00
2017-11-08T00:20:07.526Z,6.90
2017-11-08T00:22:34.074Z,7.10
2017-11-08T00:25:00.569Z,7.00
2017-11-08T00:27:26.995Z,7.10
2017-11-08T00:29:53.497Z,7.10
2017-11-08T00:32:20.815Z,7.00
2017-11-08T00:34:47.343Z,7.00
2017-11-08T00:37:13.793Z,7.10
2017-11-08T00:39:40.275Z,7.10
2017-11-08T00:42:07.492Z,7.10
2017-11-08T00:44:33.927Z,7.00
2017-11-08T00:47:00.517Z,7.00
2017-11-08T00:49:27.715Z,7.10
2017-11-08T00:51:54.172Z,7.10
2017-11-08T00:54:20.639Z,7.10
2017-11-08T00:56:47.815Z,7.10
2017-11-08T00:59:15.047Z,7.10
2017-11-08T01:01:41.487Z,7.20
2017-11-08T01:04:07.939Z,7.10
2017-11-08T01:06:34.427Z,7.10
2017-11-08T01:09:00.864Z,7.20
2017-11-08T01:11:27.317Z,7.20
2017-11-08T01:13:53.767Z,7.30
2017-11-08T01:16:20.240Z,7.20
2017-11-08T01:18:47.444Z,7.10
2017-11-08T01:21:13.879Z,6.90
2017-11-08T01:23:40.337Z,7.20
2017-11-08T01:26:06.803Z,7.20
2017-11-08T01:28:34.960Z,7.30
2017-11-08T01:31:01.398Z,7.20
2017-11-08T01:33:28.594Z,7.20
2017-11-08T01:35:55.045Z,7.20
2017-11-08T01:38:21.487Z,7.20
2017-11-08T01:40:47.954Z,7.20
2017-11-08T01:43:16.044Z,7.20
2017-11-08T01:45:42.538Z,7.20
2017-11-08T01:48:09.016Z,7.20
2017-11-08T01:50:38.433Z,7.10
2017-11-08T01:53:04.935Z,7.10
2017-11-08T01:55:31.422Z,7.10
2017-11-08T01:57:57.893Z,7.10
2017-11-08T02:00:24.318Z,7.00
2017-11-08T02:02:51.580Z,7.10
2017-11-08T02:05:18.767Z,7.10
2017-11-08T02:07:45.230Z,7.10
2017-11-08T02:10:11.729Z,6.90
2017-11-08T02:12:38.154Z,6.90
2017-11-08T02:15:05.365Z,7.10
2017-11-08T02:17:31.799Z,7.10
2017-11-08T02:19:58.396Z,7.10
2017-11-08T02:22:24.852Z,7.10
2017-11-08T02:24:55.543Z,7.10
2017-11-08T02:27:27.948Z,7.10
2017-11-08T02:29:54.368Z,7.00
2017-11-08T02:32:21.575Z,6.90
2017-11-08T02:34:48.067Z,6.80
2017-11-08T02:37:15.267Z,6.80
2017-11-08T02:39:41.695Z,6.80
2017-11-08T02:42:08.121Z,6.80
2017-11-08T02:44:34.564Z,6.80
2017-11-08T02:47:01.005Z,6.70
2017-11-08T02:49:27.493Z,6.70
2017-11-08T02:51:54.932Z,6.60
2017-11-08T02:54:23.346Z,6.60
2017-11-08T02:56:49.855Z,6.60
2017-11-08T02:59:16.349Z,6.50
2017-11-08T03:01:43.562Z,6.60
2017-11-08T03:04:10.112Z,6.50
2017-11-08T03:06:36.595Z,6.60
2017-11-08T03:09:03.056Z,6.70
2017-11-08T03:11:29.512Z,6.80
2017-11-08T03:13:55.956Z,6.80
2017-11-08T03:16:22.458Z,6.70
2017-11-08T03:18:49.012Z,6.80
2017-11-08T03:21:15.448Z,6.90
2017-11-08T03:23:41.935Z,6.90
2017-11-08T03:26:08.400Z,6.90
2017-11-08T03:28:34.921Z,6.90
2017-11-08T03:31:01.373Z,6.80
2017-11-08T03:33:27.823Z,6.90
2017-11-08T03:35:54.294Z,6.90
2017-11-08T03:38:20.747Z,6.90
2017-11-08T03:40:47.216Z,7.00
2017-11-08T03:43:13.649Z,7.00
2017-11-08T03:45:40.105Z,6.90
2017-11-08T03:48:07.348Z,6.90
2017-11-08T03:50:33.768Z,6.90
2017-11-08T03:53:00.252Z,7.00
2017-11-08T03:55:26.718Z,6.90
2017-11-08T03:57:53.219Z,6.90
2017-11-08T04:00:20.431Z,6.90
2017-11-08T04:02:46.889Z,6.90
2017-11-08T04:05:14.347Z,6.80
2017-11-08T04:07:40.801Z,6.80
2017-11-08T04:10:07.268Z,6.80
2017-11-08T04:12:33.764Z,6.90
2017-11-08T04:15:00.236Z,7.00
2017-11-08T04:17:27.439Z,6.90
2017-11-08T04:19:53.877Z,6.90
2017-11-08T04:22:20.565Z,6.70
2017-11-08T04:24:47.743Z,6.50
2017-11-08T04:27:14.953Z,6.50
2017-11-08T04:29:41.399Z,6.50
2017-11-08T04:32:08.605Z,6.50
2017-11-08T04:34:35.074Z,6.50
2017-11-08T04:37:01.539Z,6.50
2017-11-08T04:39:27.991Z,6.50
2017-11-08T04:41:55.147Z,6.60
2017-11-08T04:44:22.393Z,6.60
2017-11-08T04:46:48.839Z,6.60
2017-11-08T04:49:15.277Z,6.60
2017-11-08T04:51:42.564Z,6.50
2017-11-08T04:54:09.072Z,6.50
2017-11-08T04:56:35.531Z,6.50
2017-11-08T04:59:02.687Z,6.50
2017-11-08T05:01:29.188Z,6.50
2017-11-08T05:03:57.148Z,6.60
2017-11-08T05:06:23.643Z,6.60
2017-11-08T05:08:50.135Z,6.70
2017-11-08T05:11:16.575Z,6.60
2017-11-08T05:13:43.035Z,6.60
2017-11-08T05:16:09.466Z,6.50
2017-11-08T05:18:35.934Z,6.50
2017-11-08T05:21:03.135Z,6.50
2017-11-08T05:23:29.587Z,6.50
2017-11-08T05:25:56.100Z,6.50
2017-11-08T05:28:22.524Z,6.50
2017-11-08T05:30:48.998Z,6.50
2017-11-08T05:33:15.423Z,6.50
2017-11-08T05:35:41.954Z,6.40
2017-11-08T05:38:08.398Z,6.40
2017-11-08T05:40:34.960Z,6.40
2017-11-08T05:43:01.414Z,6.50
2017-11-08T05:45:27.859Z,6.60
2017-11-08T05:47:54.328Z,6.60
2017-11-08T05:50:20.800Z,6.70
2017-11-08T05:52:47.433Z,6.70
2017-11-08T05:55:13.856Z,6.70
2017-11-08T05:57:40.383Z,6.60
2017-11-08T06:00:07.556Z,6.60
2017-11-08T06:02:34.034Z,6.60
2017-11-08T06:05:00.500Z,6.70
2017-11-08T06:07:27.712Z,6.60
2017-11-08T06:09:54.217Z,6.70
2017-11-08T06:12:20.676Z,6.60
2017-11-08T06:14:47.150Z,6.60
2017-11-08T06:17:13.624Z,6.70
2017-11-08T06:19:40.830Z,6.70
2017-11-08T06:22:07.345Z,6.70
2017-11-08T06:24:33.747Z,6.70
2017-11-08T06:27:00.941Z,6.80
2017-11-08T06:29:27.441Z,6.70
2017-11-08T06:31:54.771Z,6.60
2017-11-08T06:34:21.265Z,6.60
2017-11-08T06:36:47.709Z,6.70
2017-11-08T06:39:14.203Z,6.80
2017-11-08T06:41:41.380Z,6.80
2017-11-08T06:44:08.732Z,6.80
2017-11-08T06:46:35.144Z,6.80
2017-11-08T06:49:01.604Z,6.70
2017-11-08T06:51:28.087Z,6.80
2017-11-08T06:53:54.527Z,6.80
2017-11-08T06:56:20.996Z,6.90
2017-11-08T06:58:47.429Z,6.90
2017-11-08T07:01:13.886Z,6.90
2017-11-08T07:03:40.371Z,6.90
2017-11-08T07:06:06.831Z,6.90
2017-11-08T07:08:33.359Z,6.90
2017-11-08T07:10:59.799Z,6.90
2017-11-08T07:13:26.296Z,6.80
2017-11-08T07:15:53.504Z,6.90
2017-11-08T07:18:19.946Z,6.80
2017-11-08T07:20:46.408Z,6.80
2017-11-08T07:23:12.899Z,6.80
2017-11-08T07:25:39.353Z,6.90
2017-11-08T07:28:05.812Z,7.00
2017-11-08T07:30:32.392Z,7.00
2017-11-08T07:32:59.599Z,7.00
2017-11-08T07:35:26.030Z,7.00
2017-11-08T07:37:52.570Z,7.00
2017-11-08T07:40:19.019Z,7.00
2017-11-08T07:42:45.480Z,7.10
2017-11-08T07:45:11.923Z,7.10
2017-11-08T07:47:38.416Z,7.10
2017-11-08T07:50:04.857Z,7.10
2017-11-08T07:52:31.321Z,7.10
2017-11-08T07:55:00.771Z,7.10
2017-11-08T07:57:27.965Z,7.20
2017-11-08T07:59:54.444Z,7.20
2017-11-08T08:02:20.950Z,7.30
2017-11-08T08:04:47.372Z,7.30
2017-11-08T08:07:13.901Z,7.30
2017-11-08T08:09:42.920Z,7.50
2017-11-08T08:12:12.244Z,7.40
2017-11-08T08:14:38.875Z,7.40
2017-11-08T08:17:05.369Z,7.50
2017-11-08T08:19:35.512Z,7.40
2017-11-08T08:22:01.954Z,7.40
2017-11-08T08:24:28.974Z,7.40
2017-11-08T08:26:55.440Z,7.50
2017-11-08T08:29:21.912Z,7.50
2017-11-08T08:31:48.379Z,7.60
2017-11-08T08:34:14.806Z,7.60
2017-11-08T08:36:41.232Z,7.70
2017-11-08T08:39:07.704Z,7.70
2017-11-08T08:41:34.197Z,7.80
2017-11-08T08:44:00.723Z,7.90
2017-11-08T08:46:27.923Z,8.00
2017-11-08T08:48:54.456Z,8.00
2017-11-08T08:51:20.879Z,8.10
2017-11-08T08:53:47.342Z,8.10
2017-11-08T08:56:13.801Z,8.20
2017-11-08T08:58:40.247Z,8.20
2017-11-08T09:01:06.782Z,8.20
2017-11-08T09:03:34.214Z,8.00
2017-11-08T09:06:00.720Z,8.10
2017-11-08T09:08:27.173Z,8.10
2017-11-08T09:10:53.592Z,8.00
2017-11-08T09:13:20.065Z,7.90
2017-11-08T09:15:46.644Z,7.80
2017-11-08T09:18:13.844Z,7.50
2017-11-08T09:20:40.287Z,7.50
2017-11-08T09:23:06.772Z,7.50
2017-11-08T09:25:33.249Z,7.40
2017-11-08T09:27:59.704Z,7.30
2017-11-08T09:30:29.234Z,7.40
2017-11-08T09:32:55.800Z,7.50
2017-11-08T09:35:23.798Z,7.50
2017-11-08T09:38:03.182Z,7.60
2017-11-08T09:40:30.484Z,7.50
2017-11-08T09:42:57.705Z,7.40
2017-11-08T09:45:24.163Z,7.40
2017-11-08T09:47:50.819Z,7.40
2017-11-08T09:50:18.050Z,7.20
2017-11-08T09:52:44.516Z,7.20
2017-11-08T09:55:11.692Z,7.20
2017-11-08T09:57:38.730Z,7.20
2017-11-08T10:00:05.901Z,7.60
2017-11-08T10:02:34.328Z,7.60
2017-11-08T10:05:00.809Z,8.00
2017-11-08T10:07:27.996Z,8.80
2017-11-08T10:09:54.595Z,8.70
2017-11-08T10:12:20.915Z,8.60
2017-11-08T10:14:47.368Z,8.40
2017-11-08T10:17:14.543Z,7.80
2017-11-08T10:19:40.991Z,7.80
2017-11-08T10:22:09.494Z,7.60
2017-11-08T10:24:35.904Z,7.50
2017-11-08T10:27:03.137Z,7.40
2017-11-08T10:29:30.331Z,7.30
2017-11-08T10:31:56.805Z,7.30
2017-11-08T10:34:23.467Z,7.20
2017-11-08T10:36:49.900Z,7.20
2017-11-08T10:39:16.383Z,7.10
2017-11-08T10:41:43.017Z,7.00
2017-11-08T10:44:09.530Z,7.00
2017-11-08T10:46:35.993Z,7.00
2017-11-08T10:49:05.288Z,7.00
2017-11-08T10:51:31.708Z,7.00
2017-11-08T10:53:58.197Z,7.00
2017-11-08T10:56:24.761Z,7.00
2017-11-08T10:58:51.205Z,7.10
2017-11-08T11:01:20.500Z,7.00
2017-11-08T11:03:50.805Z,7.00
2017-11-08T11:06:17.328Z,7.00
2017-11-08T11:08:43.791Z,7.00
2017-11-08T11:11:10.228Z,7.20
2017-11-08T11:13:42.757Z,7.30
2017-11-08T11:16:09.228Z,7.30
2017-11-08T11:18:35.720Z,7.40
2017-11-08T11:21:02.888Z,7.40
2017-11-08T11:23:36.123Z,7.30
2017-11-08T11:26:02.620Z,7.30
2017-11-08T11:28:29.812Z,7.30
2017-11-08T11:30:56.463Z,7.30
2017-11-08T11:33:22.954Z,7.30
2017-11-08T11:35:50.128Z,7.30
2017-11-08T11:38:18.636Z,7.30
2017-11-08T11:40:45.072Z,7.30
2017-11-08T11:43:11.555Z,7.30
2017-11-08T11:45:38.004Z,7.30
2017-11-08T11:48:04.497Z,7.20
2017-11-08T11:50:31.119Z,7.20
2017-11-08T11:52:57.581Z,7.20
2017-11-08T11:55:24.052Z,7.20
2017-11-08T11:57:50.505Z,7.20
2017-11-08T12:00:16.999Z,7.20
2017-11-08T12:02:43.464Z,7.40
2017-11-08T12:05:09.936Z,7.40
2017-11-08T12:07:38.137Z,7.40
2017-11-08T12:10:04.782Z,7.40
2017-11-08T12:12:31.229Z,7.40
2017-11-08T12:14:57.705Z,7.40
2017-11-08T12:17:24.206Z,7.40
2017-11-08T12:19:50.824Z,7.40
2017-11-08T12:22:18.062Z,7.10
2017-11-08T12:24:45.392Z,6.90
2017-11-08T12:27:13.759Z,6.90
2017-11-08T12:29:40.253Z,6.80
2017-11-08T12:32:06.820Z,6.80
2017-11-08T12:34:33.385Z,6.80
2017-11-08T12:36:59.889Z,6.80
2017-11-08T12:39:27.106Z,6.70
2017-11-08T12:41:53.549Z,6.70
2017-11-08T12:44:25.029Z,6.70
2017-11-08T12:46:52.386Z,6.70
2017-11-08T12:49:18.911Z,6.70
2017-11-08T12:51:45.372Z,6.70
2017-11-08T12:54:12.630Z,6.90
2017-11-08T12:56:39.855Z,6.90
2017-11-08T12:59:06.285Z,6.90
2017-11-08T13:01:32.761Z,6.90
2017-11-08T13:03:59.972Z,7.00
2017-11-08T13:06:26.515Z,7.00
2017-11-08T13:08:52.981Z,7.00
2017-11-08T13:11:25.702Z,7.00
2017-11-08T13:13:52.367Z,7.10
2017-11-08T13:16:18.869Z,7.10
2017-11-08T13:18:46.090Z,7.10
2017-11-08T13:21:12.622Z,7.10
2017-11-08T13:23:39.113Z,7.10
2017-11-08T13:26:06.447Z,7.10
2017-11-08T13:28:33.001Z,7.00
2017-11-08T13:31:00.303Z,7.00
2017-11-08T13:33:26.921Z,7.00
2017-11-08T13:35:53.536Z,7.00
2017-11-08T13:38:20.018Z,7.00
2017-11-08T13:40:46.553Z,7.10
2017-11-08T13:43:13.036Z,7.10
2017-11-08T13:45:39.665Z,7.10
2017-11-08T13:48:06.300Z,7.10
2017-11-08T13:50:32.773Z,7.10
2017-11-08T13:52:59.253Z,7.20
2017-11-08T13:55:26.695Z,7.20
2017-11-08T13:57:53.153Z,7.20
2017-11-08T14:00:20.369Z,7.00
2017-11-08T14:02:46.881Z,7.00
2017-11-08T14:05:13.343Z,7.00
2017-11-08T14:07:39.832Z,6.90
2017-11-08T14:10:07.174Z,6.90
2017-11-08T14:12:49.411Z,6.90
2017-11-08T14:15:15.900Z,6.90
2017-11-08T14:17:42.380Z,6.90
2017-11-08T14:20:09.275Z,6.80
2017-11-08T14:22:35.762Z,6.80
2017-11-08T14:25:02.350Z,6.80
2017-11-08T14:27:28.861Z,6.70
2017-11-08T14:29:55.309Z,6.70
2017-11-08T14:32:24.772Z,6.70
2017-11-08T14:34:53.066Z,6.70
2017-11-08T14:37:20.253Z,6.70
2017-11-08T14:39:46.851Z,6.70
2017-11-08T14:42:20.423Z,6.60
2017-11-08T14:44:47.048Z,6.60
2017-11-08T14:47:13.615Z,6.60
2017-11-08T14:49:40.108Z,6.60
2017-11-08T14:52:06.735Z,6.70
2017-11-08T14:54:34.044Z,6.70
2017-11-08T14:57:00.517Z,6.70
2017-11-08T14:59:27.078Z,6.60
2017-11-08T15:01:53.683Z,6.60
2017-11-08T15:04:20.198Z,6.50
2017-11-08T15:06:46.752Z,6.50
2017-11-08T15:09:15.172Z,6.50
2017-11-08T15:11:44.679Z,6.40
2017-11-08T15:14:16.168Z,6.30
2017-11-08T15:16:42.900Z,6.30
2017-11-08T15:19:09.635Z,6.30
2017-11-08T15:21:43.124Z,6.30
2017-11-08T15:24:10.600Z,6.30
2017-11-08T15:26:37.780Z,6.20
2017-11-08T15:29:04.305Z,6.20
2017-11-08T15:31:30.820Z,6.20
2017-11-08T15:33:58.049Z,6.20
2017-11-08T15:36:24.521Z,6.20
2017-11-08T15:38:51.815Z,6.20
2017-11-08T15:41:19.309Z,6.20
2017-11-08T15:43:45.804Z,6.20
2017-11-08T15:46:13.201Z,6.20
2017-11-08T15:48:39.694Z,6.20
2017-11-08T15:51:06.969Z,6.20
2017-11-08T15:53:33.494Z,6.20
2017-11-08T15:56:00.715Z,6.20
2017-11-08T15:58:27.317Z,6.20
2017-11-08T16:00:53.922Z,6.20
2017-11-08T16:03:21.183Z,6.20
2017-11-08T16:05:48.483Z,6.20
2017-11-08T16:08:30.932Z,6.20
2017-11-08T16:11:01.663Z,6.20
2017-11-08T16:13:35.268Z,6.20
2017-11-08T16:16:01.848Z,6.20
2017-11-08T16:18:28.520Z,6.10
2017-11-08T16:20:55.054Z,6.10
2017-11-08T16:23:21.639Z,6.00
2017-11-08T16:25:48.121Z,6.10
2017-11-08T16:28:14.580Z,6.10
2017-11-08T16:30:41.097Z,6.10
2017-11-08T16:33:07.553Z,6.10
2017-11-08T16:35:34.118Z,6.10
2017-11-08T16:38:00.621Z,6.10
2017-11-08T16:40:27.153Z,6.00
2017-11-08T16:42:53.709Z,6.10
2017-11-08T16:45:20.286Z,6.00
2017-11-08T16:47:47.641Z,6.00
2017-11-08T16:50:14.155Z,6.00
2017-11-08T16:52:45.319Z,6.00
2017-11-08T16:55:11.763Z,5.90
2017-11-08T16:57:38.337Z,5.90
2017-11-08T17:00:05.554Z,5.90
2017-11-08T17:02:32.147Z,5.90
2017-11-08T17:04:59.448Z,5.90
2017-11-08T17:07:25.980Z,5.90
2017-11-08T17:09:52.662Z,5.90
2017-11-08T17:12:19.365Z,5.80
2017-11-08T17:14:45.918Z,5.80
2017-11-08T17:17:12.647Z,5.80
2017-11-08T17:19:39.135Z,5.90
2017-11-08T17:22:07.364Z,5.80
2017-11-08T17:24:34.023Z,5.80
2017-11-08T17:27:00.635Z,5.90
2017-11-08T17:29:27.148Z,5.90
2017-11-08T17:31:54.515Z,6.00
2017-11-08T17:34:21.990Z,6.00
2017-11-08T17:36:48.688Z,6.00
2017-11-08T17:39:15.370Z,6.00
2017-11-08T17:41:42.884Z,6.00
2017-11-08T17:44:09.388Z,6.00
2017-11-08T17:46:37.398Z,6.00
2017-11-08T17:49:08.810Z,6.00
2017-11-08T17:51:37.261Z,6.00
2017-11-08T17:54:03.737Z,6.00
2017-11-08T17:56:30.213Z,6.10
2017-11-08T17:58:56.729Z,6.10
2017-11-08T18:01:23.535Z,6.10
2017-11-08T18:03:50.117Z,6.10
2017-11-08T18:06:16.665Z,6.10
2017-11-08T18:08:43.260Z,6.10
2017-11-08T18:11:09.874Z,6.20
2017-11-08T18:13:36.444Z,6.20
2017-11-08T18:16:03.090Z,6.20
2017-11-08T18:18:30.352Z,6.30
2017-11-08T18:20:57.617Z,6.30
2017-11-08T18:23:25.016Z,6.30
2017-11-08T18:25:51.596Z,6.30
2017-11-08T18:28:19.021Z,6.30
2017-11-08T18:30:45.663Z,6.40
2017-11-08T18:33:12.284Z,6.40
2017-11-08T18:35:38.771Z,6.40
2017-11-08T18:38:05.290Z,6.30
2017-11-08T18:40:31.809Z,6.20
2017-11-08T18:42:58.345Z,6.20
2017-11-08T18:45:24.828Z,6.20
2017-11-08T18:47:51.387Z,6.20
2017-11-08T18:50:17.856Z,6.20
2017-11-08T18:52:45.107Z,6.20
2017-11-08T18:55:12.340Z,6.30
2017-11-08T18:57:38.937Z,6.20
2017-11-08T19:00:05.544Z,6.20
2017-11-08T19:02:32.868Z,6.20
2017-11-08T19:04:59.347Z,6.20
2017-11-08T19:07:26.629Z,6.20
2017-11-08T19:09:53.384Z,6.20
2017-11-08T19:12:19.838Z,6.20
2017-11-08T19:14:46.372Z,6.10
2017-11-08T19:17:12.872Z,6.10
2017-11-08T19:19:40.095Z,6.10
2017-11-08T19:22:07.520Z,6.10
2017-11-08T19:24:34.100Z,6.20
2017-11-08T19:27:00.664Z,6.20
2017-11-08T19:29:27.874Z,6.20
2017-11-08T19:34:51.809Z,6.20
2017-11-08T19:37:19.206Z,6.30
2017-11-08T19:39:45.853Z,6.30
2017-11-08T19:42:12.415Z,6.30
2017-11-08T19:44:38.935Z,6.30
2017-11-08T19:47:05.490Z,6.30
2017-11-08T19:49:32.194Z,6.30
2017-11-08T19:51:58.710Z,6.30
2017-11-08T20:04:15.293Z,6.30
2017-11-08T20:06:41.844Z,6.10
2017-11-08T20:09:08.361Z,6.10
2017-11-08T20:11:34.898Z,6.10
2017-11-08T20:14:01.585Z,6.20
2017-11-08T20:16:28.153Z,6.20
2017-11-08T20:18:54.977Z,6.20
2017-11-08T20:21:21.495Z,6.20
2017-11-08T20:23:48.257Z,6.20
2017-11-08T20:26:15.464Z,6.20
2017-11-08T20:28:42.114Z,6.20
2017-11-08T20:31:08.626Z,6.30
2017-11-08T20:33:35.154Z,6.30
2017-11-08T20:36:01.738Z,6.30
2017-11-08T20:38:28.215Z,6.20
2017-11-08T20:50:44.874Z,6.20
2017-11-08T20:53:11.522Z,6.00
2017-11-08T20:55:38.829Z,6.00
2017-11-08T20:58:05.345Z,6.00
2017-11-08T21:00:32.597Z,6.00
2017-11-08T21:02:59.098Z,6.00
2017-11-08T21:05:26.234Z,6.10
2017-11-08T21:07:52.819Z,6.10
2017-11-08T21:10:19.423Z,6.20
2017-11-08T21:13:00.744Z,6.20
2017-11-08T21:15:27.263Z,6.20
2017-11-08T21:20:49.893Z,6.10
2017-11-08T21:23:16.513Z,6.10
2017-11-08T21:25:43.785Z,6.00
2017-11-08T21:28:10.301Z,6.00
2017-11-08T21:30:37.580Z,6.00
2017-11-08T21:33:04.919Z,6.00
2017-11-08T21:35:32.156Z,6.10
2017-11-08T21:37:58.660Z,6.10
2017-11-08T21:40:25.167Z,6.20
2017-11-08T21:42:52.392Z,6.20
2017-11-08T21:45:19.905Z,6.20
2017-11-08T21:47:46.481Z,6.20
2017-11-08T21:50:13.089Z,6.20
2017-11-08T21:52:39.585Z,6.10
2017-11-08T21:55:06.071Z,6.20
2017-11-08T21:57:32.560Z,6.20
2017-11-08T21:59:59.150Z,6.20
2017-11-08T22:02:25.732Z,6.20
2017-11-08T22:04:52.252Z,6.20
2017-11-08T22:07:18.789Z,6.20
2017-11-08T22:09:45.320Z,6.20
2017-11-08T22:12:11.762Z,6.20
2017-11-08T22:14:38.478Z,6.10
2017-11-08T22:17:05.685Z,6.10
2017-11-08T22:19:32.529Z,6.10
2017-11-08T22:21:58.968Z,6.00
2017-11-08T22:24:26.511Z,6.10
2017-11-08T22:26:53.037Z,6.10
2017-11-08T22:29:19.662Z,6.10
2017-11-08T22:31:47.059Z,6.00
2017-11-08T22:34:13.551Z,6.00
2017-11-08T22:36:40.866Z,6.00
2017-11-08T22:39:08.867Z,6.00
2017-11-08T22:41:35.340Z,6.00
2017-11-08T22:44:02.739Z,6.10
2017-11-08T22:46:29.238Z,6.10
2017-11-08T22:48:56.557Z,6.10
2017-11-08T22:51:23.144Z,6.10
2017-11-08T22:53:50.399Z,6.10
2017-11-08T22:56:17.655Z,6.10
2017-11-08T22:58:45.045Z,6.10
2017-11-08T23:01:11.522Z,6.10
2017-11-08T23:03:38.035Z,6.20
2017-11-08T23:06:04.827Z,6.10
2017-11-08T23:08:32.113Z,6.10
2017-11-08T23:10:58.628Z,6.10
2017-11-08T23:13:25.867Z,6.20
2017-11-08T23:15:52.371Z,6.20
2017-11-08T23:18:18.832Z,6.20
2017-11-08T23:20:45.433Z,6.20
2017-11-08T23:23:11.861Z,6.20
2017-11-08T23:25:38.541Z,6.30
2017-11-08T23:28:05.061Z,6.30
2017-11-08T23:30:31.676Z,6.30
2017-11-08T23:33:05.989Z,6.30
2017-11-08T23:35:33.189Z,6.20
2017-11-08T23:38:00.004Z,6.20
2017-11-08T23:40:26.538Z,6.20
2017-11-08T23:42:53.757Z,6.20
2017-11-08T23:45:20.260Z,6.20
2017-11-08T23:47:47.001Z,6.20
2017-11-08T23:50:13.512Z,6.20
2017-11-08T23:52:40.914Z,6.20
2017-11-08T23:55:07.345Z,6.20
2017-11-08T23:57:33.835Z,6.20
